Time;durP1;ratioP1;P1;durP2;ratioP2;P2;SDS_P1;SDS_P2;PMS_P1;PMS_P2;Temp;Humidity;BMP_temperature;BMP_pressure;BME280_temperature;BME280_humidity;BME280_pressure;Samples;Min_cycle;Max_cycle;Signal;HPM_P1;HPM_P2
2021/09/07 00:01:58;;;;;;;14.77;9.75;;;;;;;16.91;75.54;102471.47;5069651;28;20476;-35
2021/09/07 00:04:29;;;;;;;13.77;9.88;;;;;;;16.91;75.79;102470.63;5070735;28;20051;-37
2021/09/07 00:06:59;;;;;;;13.60;8.82;;;;;;;16.90;75.83;102468.94;5068952;28;20470;-36
2021/09/07 00:09:27;;;;;;;13.23;8.98;;;;;;;16.87;76.10;102467.56;5070338;28;20074;-35
2021/09/07 00:11:56;;;;;;;13.85;10.00;;;;;;;16.87;76.20;102467.56;5070669;28;20061;-39
2021/09/07 00:14:25;;;;;;;12.27;8.93;;;;;;;16.85;76.67;102472.66;5070221;28;20083;-39
2021/09/07 00:16:52;;;;;;;13.32;9.05;;;;;;;16.84;76.69;102466.19;5070043;28;20106;-37
2021/09/07 00:19:21;;;;;;;13.10;8.55;;;;;;;16.83;76.72;102464.50;5070955;28;20052;-39
2021/09/07 00:21:52;;;;;;;12.73;9.25;;;;;;;16.81;77.05;102455.50;5069859;28;20063;-39
2021/09/07 00:24:21;;;;;;;11.10;8.52;;;;;;;16.82;76.91;102454.38;5070502;28;20087;-38
2021/09/07 00:26:49;;;;;;;14.65;10.85;;;;;;;16.80;77.03;102455.81;5070673;28;20403;-42
2021/09/07 00:29:17;;;;;;;11.30;9.02;;;;;;;16.79;77.04;102457.78;5068499;28;20102;-38
2021/09/07 00:31:45;;;;;;;14.73;10.63;;;;;;;16.79;77.33;102457.78;5070106;28;20491;-36
2021/09/07 00:34:14;;;;;;;14.02;9.65;;;;;;;16.78;77.61;102458.97;5070766;28;20045;-39
2021/09/07 00:36:42;;;;;;;15.18;10.90;;;;;;;16.76;78.03;102455.59;5069841;28;20092;-36
2021/09/07 00:39:11;;;;;;;17.92;11.88;;;;;;;16.74;78.21;102443.78;5070416;28;20048;-36
2021/09/07 00:41:41;;;;;;;19.08;12.75;;;;;;;16.73;78.41;102442.13;5070248;28;20060;-37
2021/09/07 00:44:14;;;;;;;14.77;10.80;;;;;;;16.72;78.53;102440.44;5069607;28;20052;-40
2021/09/07 00:46:43;;;;;;;14.40;11.07;;;;;;;16.71;79.08;102441.56;5070566;28;20056;-40
2021/09/07 00:49:12;;;;;;;12.95;8.80;;;;;;;16.71;79.13;102435.94;5068134;28;20094;-33
2021/09/07 00:51:42;;;;;;;16.10;10.48;;;;;;;16.70;79.15;102441.88;5069957;28;20564;-38
2021/09/07 00:54:27;;;;;;;15.63;11.07;;;;;;;16.66;79.32;102444.44;5068192;28;20517;-37
2021/09/07 00:56:56;;;;;;;;;;;;;;;16.60;79.61;102447.59;5070406;28;20562;-37
2021/09/07 00:59:25;;;;;;;9.73;6.15;;;;;;;16.54;79.97;102450.50;5069748;28;19939;-36
2021/09/07 01:01:53;;;;;;;12.52;8.70;;;;;;;16.57;79.93;102443.44;5070407;28;20045;-36
2021/09/07 01:04:22;;;;;;;17.05;11.60;;;;;;;16.57;80.02;102446.25;5069317;28;20044;-41
2021/09/07 01:06:50;;;;;;;14.63;9.77;;;;;;;16.56;80.40;102444.56;5072213;28;20048;-35
2021/09/07 01:09:24;;;;;;;14.18;9.90;;;;;;;16.54;80.58;102439.22;5073525;28;20132;-37
2021/09/07 01:11:53;;;;;;;12.73;8.95;;;;;;;16.53;80.68;102442.34;5073218;28;20569;-35
2021/09/07 01:14:29;;;;;;;17.33;11.13;;;;;;;16.52;80.86;102449.13;5073446;28;20071;-38
2021/09/07 01:16:59;;;;;;;12.02;8.50;;;;;;;16.48;80.97;102445.22;5073572;28;20411;-38
2021/09/07 01:19:27;;;;;;;11.35;7.38;;;;;;;16.46;81.01;102448.34;5072706;28;20435;-38
2021/09/07 01:21:55;;;;;;;12.02;8.25;;;;;;;16.45;81.27;102448.63;5073644;28;20086;-35
2021/09/07 01:24:25;;;;;;;13.55;9.35;;;;;;;16.43;81.36;102439.63;5073245;28;20044;-33
2021/09/07 01:26:53;;;;;;;14.07;10.40;;;;;;;16.41;81.47;102447.53;5072828;28;20143;-37
2021/09/07 01:29:22;;;;;;;12.55;8.65;;;;;;;16.40;81.60;102446.72;5073202;28;20114;-37
2021/09/07 01:31:53;;;;;;;13.90;9.40;;;;;;;16.39;81.87;102444.19;5072834;28;20499;-37
2021/09/07 01:34:24;;;;;;;17.33;11.68;;;;;;;16.39;82.25;102452.63;5073366;28;20048;-35
2021/09/07 01:36:52;;;;;;;18.30;12.05;;;;;;;16.38;82.58;102449.00;5072207;28;20433;-35
2021/09/07 01:39:20;;;;;;;15.13;9.30;;;;;;;16.38;82.86;102446.19;5072540;28;20036;-34
2021/09/07 01:41:50;;;;;;;15.30;10.23;;;;;;;16.40;82.84;102443.03;5073121;28;20041;-35
2021/09/07 01:44:19;;;;;;;13.35;9.32;;;;;;;16.37;83.08;102444.50;5072727;28;20520;-39
2021/09/07 01:46:48;;;;;;;16.60;11.35;;;;;;;16.37;83.09;102435.22;5072698;28;20457;-36
2021/09/07 01:49:16;;;;;;;17.33;12.43;;;;;;;16.35;83.36;102432.69;5072964;28;20048;-35
2021/09/07 01:51:46;;;;;;;19.40;13.65;;;;;;;16.35;83.98;102434.69;5069676;28;20051;-37
2021/09/07 01:54:15;;;;;;;19.45;13.48;;;;;;;16.34;84.58;102435.81;5072562;28;20071;-39
2021/09/07 01:56:44;;;;;;;13.85;9.80;;;;;;;16.34;84.79;102433.84;5071349;28;20054;-34
2021/09/07 01:59:14;;;;;;;15.30;11.00;;;;;;;16.32;84.86;102441.75;5073278;28;20059;-36
2021/09/07 02:01:44;;;;;;;16.35;11.45;;;;;;;16.31;85.04;102442.03;5072324;28;20456;-35
2021/09/07 02:04:13;;;;;;;19.02;12.63;;;;;;;16.30;85.49;102446.84;5072762;28;20049;-40
2021/09/07 02:06:40;;;;;;;21.73;13.60;;;;;;;16.29;85.84;102444.31;5072379;28;20494;-40
2021/09/07 02:09:09;;;;;;;17.42;11.88;;;;;;;16.28;86.15;102435.03;5072336;28;20052;-35
2021/09/07 02:11:38;;;;;;;21.75;13.50;;;;;;;16.29;86.44;102438.69;5072022;28;20052;-35
2021/09/07 02:14:07;;;;;;;22.13;14.88;;;;;;;16.29;87.05;102445.16;5072224;28;20067;-38
2021/09/07 02:16:37;;;;;;;19.80;13.57;;;;;;;16.32;87.90;102449.38;5072216;28;20083;-41
2021/09/07 02:19:05;;;;;;;24.20;16.33;;;;;;;16.33;88.33;102445.41;5072483;28;20068;-37
2021/09/07 02:21:33;;;;;;;17.90;12.40;;;;;;;16.35;88.52;102455.25;5071500;28;20511;-38
2021/09/07 02:24:02;;;;;;;19.55;13.52;;;;;;;16.36;88.80;102456.09;5072283;28;20059;-33
2021/09/07 02:26:30;;;;;;;18.83;12.48;;;;;;;16.36;88.91;102447.63;5071918;28;20060;-39
2021/09/07 02:28:58;;;;;;;26.58;17.33;;;;;;;16.34;89.20;102441.44;5071875;28;20041;-38
2021/09/07 02:31:28;;;;;;;17.85;12.05;;;;;;;16.34;89.38;102441.44;5071876;28;20053;-40
2021/09/07 02:33:58;;;;;;;20.05;13.10;;;;;;;16.33;89.58;102446.25;5072144;28;20056;-36
2021/09/07 02:36:27;;;;;;;22.67;14.93;;;;;;;16.33;89.97;102439.78;5071168;28;20068;-39
2021/09/07 02:38:56;;;;;;;24.77;15.70;;;;;;;16.33;90.53;102439.78;5072420;28;20064;-41
2021/09/07 02:41:25;;;;;;;21.95;15.50;;;;;;;16.34;90.89;102435.81;5071783;28;20407;-35
2021/09/07 02:43:53;;;;;;;23.83;16.02;;;;;;;16.34;91.38;102438.63;5060472;28;20075;-39
2021/09/07 02:46:21;;;;;;;21.83;15.25;;;;;;;16.34;91.40;102438.63;5071478;28;20080;-37
2021/09/07 02:48:49;;;;;;;21.67;15.32;;;;;;;16.33;91.83;102437.78;5071661;28;20055;-34
2021/09/07 02:51:19;;;;;;;22.45;13.82;;;;;;;16.31;91.88;102437.25;5071337;28;20092;-38
2021/09/07 02:53:47;;;;;;;26.38;17.30;;;;;;;16.29;92.29;102435.88;5068257;28;20102;-38
2021/09/07 02:56:16;;;;;;;24.67;16.17;;;;;;;16.29;92.58;102428.25;5070906;28;20052;-36
2021/09/07 02:58:45;;;;;;;23.05;15.55;;;;;;;16.29;92.96;102433.91;5071497;28;20052;-38
2021/09/07 03:01:14;;;;;;;26.90;16.45;;;;;;;16.30;93.07;102434.72;5071526;28;20106;-38
2021/09/07 03:03:42;;;;;;;28.55;17.55;;;;;;;16.29;93.62;102430.22;5070783;28;20067;-36
2021/09/07 03:06:10;;;;;;;29.48;18.95;;;;;;;16.28;94.18;102426.56;5071560;28;20121;-36
2021/09/07 03:08:39;;;;;;;27.52;18.38;;;;;;;16.29;94.13;102421.78;5069994;28;20088;-36
2021/09/07 03:11:07;;;;;;;24.48;15.70;;;;;;;16.28;94.40;102425.75;5071030;28;20076;-37
2021/09/07 03:13:36;;;;;;;28.13;16.70;;;;;;;16.27;94.41;102427.72;5070924;28;20507;-36
2021/09/07 03:16:04;;;;;;;21.52;15.05;;;;;;;16.27;94.63;102424.06;5071216;28;20052;-35
2021/09/07 03:18:32;;;;;;;25.13;16.88;;;;;;;16.25;95.10;102420.69;5070488;28;20114;-36
2021/09/07 03:21:00;;;;;;;26.92;17.00;;;;;;;16.24;95.35;102419.00;5071509;28;20412;-40
2021/09/07 03:23:29;;;;;;;27.95;17.10;;;;;;;16.23;95.36;102411.69;5070933;28;20055;-37
2021/09/07 03:25:59;;;;;;;25.08;16.50;;;;;;;16.23;95.45;102415.34;5070719;28;20123;-37
2021/09/07 03:28:27;;;;;;;28.77;17.60;;;;;;;16.22;95.80;102421.28;5070845;28;20052;-36
2021/09/07 03:30:55;;;;;;;26.80;17.27;;;;;;;16.20;95.54;102419.63;5071354;28;20118;-34
2021/09/07 03:33:23;;;;;;;24.33;16.05;;;;;;;16.20;95.65;102413.13;5070500;28;20483;-36
2021/09/07 03:35:52;;;;;;;29.00;17.98;;;;;;;16.19;95.64;102417.09;5071380;28;20059;-42
2021/09/07 03:38:20;;;;;;;30.17;19.38;;;;;;;16.18;95.60;102410.66;5070022;28;20055;-36
2021/09/07 03:40:48;;;;;;;23.83;15.75;;;;;;;16.15;95.46;102405.63;5060169;28;20044;-36
2021/09/07 03:43:18;;;;;;;22.23;15.23;;;;;;;16.14;95.69;102406.75;5070545;28;20041;-37
2021/09/07 03:45:46;;;;;;;24.08;16.90;;;;;;;16.12;95.48;102417.47;5070557;28;20044;-40
2021/09/07 03:48:14;;;;;;;23.17;14.50;;;;;;;16.12;95.46;102419.44;5070826;28;20041;-34
2021/09/07 03:50:42;;;;;;;27.90;17.80;;;;;;;16.10;95.60;102419.75;5067698;28;20131;-36
2021/09/07 03:53:11;;;;;;;22.08;14.80;;;;;;;16.09;95.71;102417.22;5070559;28;20088;-36
2021/09/07 03:55:39;;;;;;;28.60;17.95;;;;;;;16.08;95.85;102413.56;5070619;28;20449;-37
2021/09/07 03:58:07;;;;;;;21.58;14.20;;;;;;;16.07;95.97;102409.06;5070953;28;20143;-37
2021/09/07 04:00:37;;;;;;;24.25;15.68;;;;;;;16.07;95.92;102420.34;5070229;28;20084;-40
2021/09/07 04:03:13;;;;;;;24.00;15.82;;;;;;;16.06;96.04;102418.66;5070925;28;20045;-41
2021/09/07 04:05:42;;;;;;;25.45;16.63;;;;;;;16.04;96.04;102420.94;5068380;28;20491;-36
2021/09/07 04:08:10;;;;;;;25.67;15.82;;;;;;;16.04;96.05;102418.09;5069838;28;20454;-34
2021/09/07 04:10:38;;;;;;;22.80;13.30;;;;;;;16.04;96.20;102415.28;5070315;28;20052;-35
2021/09/07 04:13:07;;;;;;;27.10;17.08;;;;;;;16.05;96.09;102416.13;5071055;28;20174;-34
2021/09/07 04:15:37;;;;;;;18.67;12.57;;;;;;;16.06;96.23;102417.81;5069916;28;20144;-41
2021/09/07 04:18:05;;;;;;;26.35;17.30;;;;;;;16.07;96.40;102422.31;5070898;28;20059;-35
2021/09/07 04:20:33;;;;;;;24.63;16.23;;;;;;;16.07;96.24;102419.50;5069777;28;20072;-37
2021/09/07 04:23:02;;;;;;;22.40;15.57;;;;;;;16.07;96.23;102409.06;5070855;28;20053;-40
2021/09/07 04:25:30;;;;;;;23.63;15.40;;;;;;;16.08;96.29;102407.09;5070296;28;20087;-35
2021/09/07 04:27:58;;;;;;;25.30;14.95;;;;;;;16.09;96.22;102415.25;5069830;28;20587;-35
2021/09/07 04:30:26;;;;;;;21.52;14.85;;;;;;;16.09;96.42;102418.06;5070291;28;20127;-39
2021/09/07 04:32:55;;;;;;;17.88;11.60;;;;;;;16.12;96.26;102419.44;5070697;28;20053;-34
2021/09/07 04:35:23;;;;;;;23.70;15.93;;;;;;;16.11;95.92;102424.25;5069696;28;20048;-36
2021/09/07 04:37:51;;;;;;;20.33;13.57;;;;;;;16.12;95.78;102423.09;5070800;28;20041;-37
2021/09/07 04:40:19;;;;;;;18.27;11.45;;;;;;;16.13;95.73;102430.41;5070400;28;20048;-36
2021/09/07 04:42:46;;;;;;;22.13;13.98;;;;;;;16.13;95.63;102427.59;5074082;28;20077;-36
2021/09/07 04:45:15;;;;;;;21.20;14.70;;;;;;;16.14;95.73;102425.63;5073966;28;20041;-34
2021/09/07 04:47:43;;;;;;;20.35;12.68;;;;;;;16.16;95.79;102423.34;5074093;28;20070;-40
2021/09/07 04:50:13;;;;;;;23.65;15.75;;;;;;;16.17;95.78;102430.66;5073247;28;20106;-39
2021/09/07 04:52:41;;;;;;;21.02;14.02;;;;;;;16.17;95.81;102430.66;5073918;28;20469;-37
2021/09/07 04:55:10;;;;;;;25.33;16.83;;;;;;;16.17;95.76;102428.69;5073787;28;20041;-34
2021/09/07 04:57:38;;;;;;;29.15;18.70;;;;;;;16.18;95.60;102427.56;5072998;28;20047;-38
2021/09/07 05:00:07;;;;;;;23.75;15.40;;;;;;;16.18;95.59;102429.53;5073531;28;20522;-35
2021/09/07 05:02:36;;;;;;;26.98;17.98;;;;;;;16.17;95.68;102431.50;5071230;28;20044;-39
2021/09/07 05:05:06;;;;;;;29.70;20.40;;;;;;;16.16;95.61;102431.81;5073857;28;20059;-36
2021/09/07 05:07:37;;;;;;;26.52;18.40;;;;;;;16.14;95.86;102425.63;5071788;28;20072;-33
2021/09/07 05:10:06;;;;;;;25.55;16.38;;;;;;;16.12;96.01;102434.38;5070092;28;20091;-38
2021/09/07 05:12:34;;;;;;;30.15;19.40;;;;;;;16.12;96.50;102428.75;5073136;28;20434;-42
2021/09/07 05:15:02;;;;;;;24.67;15.80;;;;;;;16.12;96.43;102428.75;5073838;28;20403;-39
2021/09/07 05:17:30;;;;;;;23.83;16.05;;;;;;;16.13;96.39;102436.06;5072792;28;20140;-33
2021/09/07 05:19:58;;;;;;;21.83;14.80;;;;;;;16.15;96.57;102433.78;5073620;28;20554;-37
2021/09/07 05:22:26;;;;;;;24.98;16.52;;;;;;;16.18;96.55;102435.16;5072550;28;20064;-39
2021/09/07 05:24:55;;;;;;;26.27;16.75;;;;;;;16.22;96.55;102435.38;5071161;28;20106;-40
2021/09/07 05:27:23;;;;;;;29.98;18.80;;;;;;;16.23;96.63;102437.91;5071686;28;20131;-34
2021/09/07 05:29:51;;;;;;;27.23;17.52;;;;;;;16.25;96.84;102440.41;5072468;28;20487;-36
2021/09/07 05:32:21;;;;;;;24.35;16.42;;;;;;;16.25;96.99;102437.59;5071372;28;20047;-39
2021/09/07 05:34:49;;;;;;;26.13;17.80;;;;;;;16.27;96.85;102436.16;5072203;28;20048;-37
2021/09/07 05:37:17;;;;;;;30.05;18.17;;;;;;;16.30;96.87;102434.72;5071991;28;20105;-34
2021/09/07 05:39:45;;;;;;;30.98;19.05;;;;;;;16.31;96.74;102437.25;5061499;28;20052;-36
2021/09/07 05:42:14;;;;;;;29.20;18.77;;;;;;;16.33;96.58;102429.34;5073150;28;20586;-40
2021/09/07 05:44:42;;;;;;;25.88;16.27;;;;;;;16.34;96.64;102433.84;5073318;28;20090;-38
2021/09/07 05:47:10;;;;;;;28.05;17.75;;;;;;;16.35;96.54;102431.88;5072263;28;20040;-36
2021/09/07 05:49:38;;;;;;;28.58;19.38;;;;;;;16.37;96.43;102426.78;5069441;28;20037;-35
2021/09/07 05:52:06;;;;;;;27.55;18.08;;;;;;;16.39;96.29;102430.09;5071790;28;20055;-36
2021/09/07 05:54:34;;;;;;;23.77;15.35;;;;;;;16.40;96.25;102423.31;5072528;28;20048;-36
2021/09/07 05:57:02;;;;;;;26.35;15.93;;;;;;;16.43;96.12;102419.91;5072767;28;20091;-36
2021/09/07 05:59:31;;;;;;;24.20;15.80;;;;;;;16.45;96.02;102423.28;5072191;28;20057;-38
2021/09/07 06:01:59;;;;;;;27.15;15.75;;;;;;;16.45;95.96;102426.94;5072782;28;20056;-36
2021/09/07 06:04:28;;;;;;;26.75;16.95;;;;;;;16.47;95.91;102433.09;5072970;28;20037;-36
2021/09/07 06:06:55;;;;;;;22.42;13.18;;;;;;;16.49;95.91;102433.66;5071562;28;20095;-39
2021/09/07 06:09:23;;;;;;;18.10;11.55;;;;;;;16.54;95.52;102438.38;5072140;28;20044;-37
2021/09/07 06:11:51;;;;;;;24.00;16.00;;;;;;;16.60;95.32;102433.50;5072967;28;20558;-35
2021/09/07 06:14:19;;;;;;;23.73;15.52;;;;;;;16.65;95.03;102439.94;5071533;28;20052;-37
2021/09/07 06:16:48;;;;;;;24.13;15.73;;;;;;;16.69;94.92;102438.22;5072639;28;20106;-34
2021/09/07 06:19:16;;;;;;;25.15;16.38;;;;;;;16.73;94.61;102438.44;5071844;28;20117;-37
2021/09/07 06:21:44;;;;;;;19.05;12.02;;;;;;;16.77;94.49;102439.53;5071905;28;20491;-33
2021/09/07 06:24:12;;;;;;;24.73;16.33;;;;;;;16.82;94.23;102448.75;5072030;28;20114;-40
2021/09/07 06:26:39;;;;;;;22.42;14.38;;;;;;;16.87;93.96;102440.22;5072396;28;20507;-36
2021/09/07 06:29:07;;;;;;;14.65;10.55;;;;;;;16.93;93.83;102441.00;5071535;28;20041;-41
2021/09/07 06:31:35;;;;;;;19.52;14.00;;;;;;;17.01;93.52;102442.28;5072290;28;20077;-38
2021/09/07 06:34:05;;;;;;;17.58;11.95;;;;;;;17.08;93.29;102440.75;5071213;28;20052;-38
2021/09/07 06:36:33;;;;;;;16.42;10.10;;;;;;;17.16;93.09;102436.44;5072226;28;20036;-36
2021/09/07 06:39:01;;;;;;;17.35;12.48;;;;;;;17.23;92.79;102439.69;5071818;28;20045;-38
2021/09/07 06:41:29;;;;;;;16.48;11.40;;;;;;;17.31;92.56;102432.53;5071588;28;20055;-37
2021/09/07 06:43:57;;;;;;;14.48;9.95;;;;;;;17.37;92.28;102436.94;5071490;28;20090;-35
2021/09/07 06:46:25;;;;;;;20.45;14.07;;;;;;;17.45;92.33;102439.88;5071728;28;20139;-40
2021/09/07 06:48:53;;;;;;;13.40;9.80;;;;;;;17.54;91.95;102446.53;5071190;28;20122;-38
2021/09/07 06:51:22;;;;;;;17.25;11.23;;;;;;;17.65;91.94;102446.38;5070690;28;20052;-40
2021/09/07 06:53:50;;;;;;;14.90;10.02;;;;;;;17.74;91.84;102438.88;5069965;28;20040;-42
2021/09/07 06:56:18;;;;;;;18.17;12.13;;;;;;;17.81;91.24;102447.78;5068462;28;20048;-37
2021/09/07 06:58:46;;;;;;;22.17;14.07;;;;;;;17.86;90.91;102450.53;5071163;28;20070;-42
2021/09/07 07:01:14;;;;;;;20.65;14.38;;;;;;;17.90;90.76;102440.28;5069889;28;20049;-35
2021/09/07 07:03:42;;;;;;;19.52;13.70;;;;;;;17.95;90.61;102443.03;5069354;28;20056;-38
2021/09/07 07:06:10;;;;;;;21.15;15.00;;;;;;;18.00;90.09;102440.09;5070119;28;20139;-37
2021/09/07 07:08:39;;;;;;;21.58;14.80;;;;;;;18.07;89.74;102439.69;5070577;28;20091;-40
2021/09/07 07:11:07;;;;;;;19.90;13.68;;;;;;;18.11;89.23;102440.75;5069955;28;20486;-37
2021/09/07 07:13:35;;;;;;;26.02;16.58;;;;;;;18.15;88.68;102439.81;5070758;28;20087;-38
2021/09/07 07:16:03;;;;;;;25.65;16.65;;;;;;;18.18;88.24;102444.84;5070513;28;20441;-37
2021/09/07 07:18:31;;;;;;;25.88;17.25;;;;;;;18.23;88.43;102450.38;5070038;28;20064;-37
2021/09/07 07:20:59;;;;;;;22.35;15.13;;;;;;;18.29;87.87;102441.81;5070133;28;20044;-36
2021/09/07 07:23:27;;;;;;;24.90;16.33;;;;;;;18.34;87.63;102438.88;5070295;28;20072;-40
2021/09/07 07:25:57;;;;;;;26.20;17.02;;;;;;;18.38;87.76;102445.59;5070202;28;20058;-41
2021/09/07 07:28:25;;;;;;;24.73;16.05;;;;;;;18.46;87.38;102456.16;5070683;28;20471;-37
2021/09/07 07:30:52;;;;;;;21.73;15.57;;;;;;;18.54;87.27;102450.63;5069526;28;20135;-35
2021/09/07 07:33:20;;;;;;;20.13;12.68;;;;;;;18.66;86.60;102454.91;5069280;28;20040;-37
2021/09/07 07:35:48;;;;;;;22.35;14.95;;;;;;;18.75;86.24;102448.22;5068541;28;20040;-42
2021/09/07 07:38:16;;;;;;;20.48;14.25;;;;;;;18.85;85.84;102450.81;5065137;28;20131;-37
2021/09/07 07:40:45;;;;;;;18.40;12.68;;;;;;;18.97;85.98;102457.94;5069431;28;20467;-42
2021/09/07 07:43:15;;;;;;;19.00;12.43;;;;;;;19.11;85.46;102453.06;5069195;28;20049;-41
2021/09/07 07:45:43;;;;;;;18.10;13.63;;;;;;;19.25;85.71;102451.88;5068744;28;20105;-39
2021/09/07 07:48:11;;;;;;;17.45;12.35;;;;;;;19.38;85.20;102452.16;5069929;28;20140;-41
2021/09/07 07:50:39;;;;;;;18.70;12.43;;;;;;;19.51;84.83;102457.78;5070193;28;20121;-37
2021/09/07 07:53:06;;;;;;;19.33;13.95;;;;;;;19.61;84.73;102451.84;5068349;28;20465;-37
2021/09/07 07:55:34;;;;;;;20.48;13.75;;;;;;;19.73;84.19;102453.28;5050391;28;20049;-38
2021/09/07 07:58:17;;;;;;;20.60;13.77;;;;;;;19.84;84.22;102460.34;5069942;28;20135;-39
2021/09/07 08:00:46;;;;;;;18.75;12.55;;;;;;;19.94;83.26;102463.75;5049917;28;20102;-36
2021/09/07 08:03:14;;;;;;;19.88;13.88;;;;;;;20.04;82.95;102459.81;5069128;28;20057;-41
2021/09/07 08:05:42;;;;;;;16.60;11.30;;;;;;;20.14;82.44;102461.53;5070028;28;20052;-36
2021/09/07 08:08:10;;;;;;;20.35;13.68;;;;;;;20.24;82.03;102466.91;5068418;28;20074;-39
2021/09/07 08:10:39;;;;;;;15.15;10.93;;;;;;;20.31;81.54;102458.78;5068671;28;20074;-42
2021/09/07 08:13:08;;;;;;;21.63;14.93;;;;;;;20.44;81.16;102463.53;5067813;28;20048;-39
2021/09/07 08:15:37;;;;;;;17.10;10.93;;;;;;;20.51;80.48;102463.91;5070813;28;20048;-40
2021/09/07 08:18:05;;;;;;;16.45;12.48;;;;;;;20.63;79.87;102466.09;5072326;28;20131;-36
2021/09/07 08:20:33;;;;;;;16.35;11.93;;;;;;;20.80;79.68;102471.00;5072418;28;20060;-40
2021/09/07 08:23:02;;;;;;;18.52;12.52;;;;;;;21.10;79.29;102474.91;5073428;28;20099;-43
2021/09/07 08:25:30;;;;;;;14.63;11.15;;;;;;;21.38;77.98;102473.47;5074704;28;20141;-36
2021/09/07 08:27:58;;;;;;;20.35;13.95;;;;;;;21.71;77.52;102475.81;5073667;28;20086;-38
2021/09/07 08:30:26;;;;;;;22.05;15.45;;;;;;;22.20;75.86;102474.38;5063471;28;20059;-40
2021/09/07 08:32:56;;;;;;;19.13;13.65;;;;;;;22.71;73.98;102472.50;5074159;28;20052;-40
2021/09/07 08:35:24;;;;;;;20.13;13.80;;;;;;;23.17;72.64;102480.13;5074131;28;20135;-34
2021/09/07 08:37:52;;;;;;;18.45;12.63;;;;;;;23.75;70.83;102484.03;5074313;28;20057;-36
2021/09/07 08:40:20;;;;;;;17.55;13.05;;;;;;;24.38;68.09;102474.13;5070739;28;20040;-40
2021/09/07 08:42:48;;;;;;;15.57;11.93;;;;;;;24.91;65.95;102483.69;5073863;28;20045;-39
2021/09/07 08:45:16;;;;;;;16.77;12.77;;;;;;;25.60;65.52;102485.47;5073689;28;20055;-36
2021/09/07 08:47:46;;;;;;;16.58;12.30;;;;;;;26.44;64.09;102471.97;5073658;28;20442;-36
2021/09/07 08:50:15;;;;;;;15.63;12.05;;;;;;;27.14;60.78;102479.88;5073812;28;20055;-38
2021/09/07 08:52:44;;;;;;;16.42;10.98;;;;;;;27.66;59.79;102485.16;5074273;28;20144;-37
2021/09/07 08:55:12;;;;;;;17.20;11.80;;;;;;;28.20;57.31;102482.19;5073381;28;20052;-35
2021/09/07 08:57:40;;;;;;;17.38;10.55;;;;;;;28.50;55.17;102478.63;5053885;28;20045;-35
2021/09/07 09:00:09;;;;;;;14.18;9.35;;;;;;;28.42;53.11;102471.91;5072571;28;20067;-38
2021/09/07 09:02:43;;;;;;;14.63;9.35;;;;;;;28.25;52.81;102476.13;5073303;28;20048;-37
2021/09/07 09:05:12;;;;;;;12.40;9.40;;;;;;;28.31;53.04;102485.28;5073751;28;20044;-39
2021/09/07 09:07:43;;;;;;;14.93;10.27;;;;;;;28.61;50.86;102474.72;5073460;28;20072;-36
2021/09/07 09:10:19;;;;;;;13.07;9.80;;;;;;;28.99;48.91;102476.59;5072666;28;20070;-39
2021/09/07 09:12:47;;;;;;;13.27;10.73;;;;;;;29.26;48.75;102480.31;5073823;28;20554;-41
2021/09/07 09:15:17;;;;;;;14.38;11.00;;;;;;;29.50;46.66;102479.03;5073253;28;20048;-37
2021/09/07 09:17:45;;;;;;;13.35;9.80;;;;;;;29.55;45.72;102477.88;5073167;28;20060;-35
2021/09/07 09:20:17;;;;;;;12.68;9.80;;;;;;;29.76;45.85;102484.72;5073353;28;20048;-38
2021/09/07 09:22:48;;;;;;;13.43;9.43;;;;;;;29.92;44.37;102477.91;5073599;28;20102;-36
2021/09/07 09:25:34;;;;;;;11.77;9.30;;;;;;;30.12;42.25;102476.53;5073187;28;20052;-40
2021/09/07 09:28:22;;;;;;;12.20;9.52;;;;;;;30.38;41.51;102485.00;5072692;28;20101;-39
2021/09/07 09:30:53;;;;;;;12.93;10.25;;;;;;;30.49;41.86;102485.13;5072271;28;20083;-37
2021/09/07 09:33:24;;;;;;;13.57;10.40;;;;;;;30.74;41.79;102489.09;5073463;28;20052;-40
2021/09/07 09:35:59;;;;;;;13.32;10.48;;;;;;;31.03;40.48;102487.25;5073071;28;20131;-34
2021/09/07 09:38:32;;;;;;;12.40;10.27;;;;;;;31.15;40.16;102481.19;5072809;28;20079;-39
2021/09/07 09:41:02;;;;;;;12.05;10.30;;;;;;;31.29;39.04;102486.22;5072715;28;20044;-40
2021/09/07 09:43:38;;;;;;;11.60;9.85;;;;;;;31.28;39.24;102477.97;5072956;28;20124;-33
2021/09/07 09:46:23;;;;;;;12.82;11.25;;;;;;;31.47;36.52;102480.53;5072512;28;20080;-39
2021/09/07 09:48:53;;;;;;;12.85;10.40;;;;;;;31.52;38.79;102483.88;5073078;28;20048;-42
2021/09/07 09:51:23;;;;;;;11.98;9.32;;;;;;;31.42;39.52;102478.84;5072074;28;20064;-38
2021/09/07 09:53:52;;;;;;;15.38;11.00;;;;;;;31.46;38.32;102473.94;5073110;28;20051;-38
2021/09/07 09:56:20;;;;;;;11.95;9.80;;;;;;;31.50;38.25;102479.72;5072241;28;20045;-37
2021/09/07 09:58:49;;;;;;;11.00;9.07;;;;;;;31.50;38.21;102473.97;5072393;28;20122;-42
2021/09/07 10:01:20;;;;;;;15.15;10.18;;;;;;;31.36;37.95;102471.00;5072401;28;20053;-39
2021/09/07 10:03:50;;;;;;;13.82;10.00;;;;;;;31.24;38.56;102469.28;5073026;28;20048;-38
2021/09/07 10:06:20;;;;;;;12.73;9.68;;;;;;;30.94;38.13;102472.38;5072123;28;20079;-42
2021/09/07 10:08:48;;;;;;;13.10;10.48;;;;;;;31.03;38.50;102469.94;5072419;28;20056;-38
2021/09/07 10:11:22;;;;;;;12.25;10.70;;;;;;;31.24;37.74;102472.16;5072254;28;20090;-40
2021/09/07 10:13:54;;;;;;;12.02;10.27;;;;;;;31.24;36.81;102465.56;5072121;28;20045;-44
2021/09/07 10:16:33;;;;;;;11.48;9.98;;;;;;;30.98;35.77;102470.31;5072193;28;20449;-36
2021/09/07 10:19:08;;;;;;;11.27;8.85;;;;;;;30.71;36.46;102472.59;5071191;28;20442;-36
2021/09/07 10:24:54;;;;;;;12.10;9.60;;;;;;;31.04;36.31;102465.00;5063774;28;20048;-38
2021/09/07 10:28:01;;;;;;;11.38;9.88;;;;;;;31.29;34.07;102462.31;5056922;28;20491;-40
2021/09/07 10:30:58;;;;;;;13.13;10.80;;;;;;;31.34;33.92;102464.81;5066242;28;20158;-41
2021/09/07 10:33:38;;;;;;;15.13;10.98;;;;;;;31.32;34.54;102461.50;5071190;28;20052;-42
2021/09/07 10:36:08;;;;;;;13.77;10.38;;;;;;;31.35;35.21;102454.94;5051214;28;20492;-37
2021/09/07 10:38:38;;;;;;;12.43;10.10;;;;;;;31.64;34.99;102448.03;5070754;28;20116;-38
2021/09/07 10:41:07;;;;;;;11.43;9.15;;;;;;;32.04;34.78;102454.78;5051502;28;20049;-39
2021/09/07 10:43:54;;;;;;;14.75;10.15;;;;;;;32.36;31.92;102446.22;5070419;28;20056;-37
2021/09/07 10:46:45;;;;;;;12.40;10.25;;;;;;;32.26;31.33;102449.91;5052281;28;20423;-40
2021/09/07 10:49:18;;;;;;;11.10;9.75;;;;;;;32.12;32.61;102456.47;5069798;28;20070;-40
2021/09/07 10:52:13;;;;;;;12.65;10.48;;;;;;;32.18;31.55;102446.13;5071598;28;20594;-40
2021/09/07 10:54:54;;;;;;;12.48;10.38;;;;;;;32.31;33.55;102447.44;5070758;28;20410;-36
2021/09/07 10:57:56;;;;;;;12.93;10.88;;;;;;;32.49;31.19;102445.38;5071656;28;20049;-41
2021/09/07 11:00:39;;;;;;;14.02;10.82;;;;;;;32.39;31.16;102446.19;5071560;28;20043;-39
2021/09/07 11:03:25;;;;;;;13.30;10.68;;;;;;;32.33;33.54;102444.16;5071047;28;20106;-41
2021/09/07 11:05:54;;;;;;;13.73;9.80;;;;;;;32.41;33.49;102440.84;5063165;28;20132;-44
2021/09/07 11:08:45;;;;;;;12.70;9.63;;;;;;;32.44;33.39;102437.13;5070708;28;20052;-42
2021/09/07 11:11:26;;;;;;;14.32;10.27;;;;;;;32.58;32.90;102444.97;5071864;28;20473;-40
2021/09/07 11:14:09;;;;;;;13.95;11.30;;;;;;;32.49;31.98;102433.81;5071242;28;20446;-35
2021/09/07 11:16:38;;;;;;;14.27;11.07;;;;;;;32.13;32.73;102432.13;5070728;28;20053;-39
2021/09/07 11:19:06;;;;;;;12.63;10.48;;;;;;;31.80;33.57;102433.28;5071013;28;20070;-37
2021/09/07 11:21:34;;;;;;;11.95;9.63;;;;;;;31.57;34.40;102433.59;5071148;28;20063;-40
2021/09/07 11:24:03;;;;;;;14.45;11.00;;;;;;;31.71;34.47;102427.91;5070519;28;20041;-39
2021/09/07 11:26:31;;;;;;;15.48;12.45;;;;;;;32.00;34.23;102437.44;5071182;28;20530;-43
2021/09/07 11:28:59;;;;;;;16.25;12.20;;;;;;;32.02;33.69;102425.50;5070763;28;20056;-40